Millville, UT (84326)

2:57 AM MST on December 08, 2016 (GMT -0700)
Nibley UT South | | Change Station
Active Advisory: Winter Storm Warning

Elev 4587 ft 41.67 °N, 111.83 °W | Updated 10 minutes ago

Clear
Clear
9.3 °F
Feels Like 9 °F
N
0.0
Wind Variable Wind from SSW
Gusts 0.0 mph

Today
High -- | Low -- °F
--% Chance of Precip.
Yesterday
High -- | Low -- °F
Precip. -- in
Pressure 30.49 in
Visibility 10.0 miles
Clouds Clear
Windchill 9 °F
Dew Point -0 °F
Humidity 74%
Rainfall 0.00 in
Snow Depth Not available.
7:42 AM 4:56 PM
First Quarter, 62% visible
METAR KLGU 080951Z AUTO 31003KT 10SM CLR M12/M14 A3034 RMK AO2 SLP323 T11221144
Pressure 30.49 in
Visibility 10.0 miles
Clouds Clear
Windchill 9 °F
Dew Point -0 °F
Humidity 74%
Rainfall 0.00 in
Snow Depth Not available.
7:42 AM 4:56 PM
First Quarter, 62% visible
METAR KLGU 080951Z AUTO 31003KT 10SM CLR M12/M14 A3034 RMK AO2 SLP323 T11221144

10-Day Weather Forecast

Almanac

Astronomy

Dec. 08, 2016 Rise Set
Actual Time
Civil Twilight
Nautical Twilight
Astronomical Twilight
Moon
Length of Visible Light
Length of Day
Tomorrow will be .
, % of the Moon is Illuminated

Today's Extremes

State Highs State Lows

Community

WunderPhotos

Upload Photos

1,956,261 photos uploaded!

WunderBlog® & News

Nearby

Air Quality

  Air Quality AQ Index Pollutant
Not available.

Snow Depth

Station Depth Elevation

Earthquake Activity

City Distance Mag. Time & Date
Minimum magnitude displayed is 2.5.

Coastal Water Temperatures

Place Temperature

Stations

Nearby Weather Stations

Station Location Temp. Windchill Dew Point Humidity Wind Precip. Elev Updated Type
                   

Watches & Warnings

Winter Storm Warning
Issued: 10:01 PM MST Dec. 7, 2016 – National Weather Service

... Winter Storm Warning remains in effect from 3 PM Thursday to
3 PM MST Friday...

* affected area... the Cache Valley... the northern Wasatch front
and the Wasatch Mountain valleys.

* Snow accumulations... 6 to 12 inches except 1 to 2 feet in the
Ogden Valley.

* Timing... snow will develop Thursday afternoon and continue
heavy at times through Friday morning before tapering off.

* Impacts... winter driving conditions can be expected across all
routes beginning Thursday afternoon... and continuing into
Friday. This includes the Thursday evening and Friday morning
commutes along the northern Wasatch front.

Precautionary/preparedness actions...

A Winter Storm Warning for heavy snow means that significant
accumulations of snow are expected or occurring. Driving
conditions may be hazardous. Use caution. Keep a winter storm
survival kit in your vehicle in case of an emergency.

For winter Road conditions from the Utah Department of
Transportation... visit
http://www.Udottraffic.Utah.Gov/roadweatherforecast.Aspx or dial
511.